Ganyu, China
Current Conditions -  °F | °C
As of 4:00 PM on Tuesday 27 Jan 2015 (Local Time) from ZSQD Reporting Station
Few Clouds Few Clouds  
Wind Chill: 18°   Ceiling: Unl
Heat Index: 30°   Visibility: 6mi
Dew Point: 12°   Wind: 18mph
Humidity: 47%   Direction: 350°N
Pressure: 30.48"   Gusts: NA
Location:  34.83°N, 119.13°E
Report Text: ZSQD 270800Z 35008MPS 9999 FEW033 M01/M11 Q1032 NOSIG
Loading
Personal Weather Stations






























Interactive Weather Map New forecast layout! Learn more

10-Day Weather Forecast

Advertisements
Track Severe Weather on mobile